Flight Track Log - Related Links

Times and Time Zones

All times are in EDT time to prevent confusion due to time zone crossing. See the DAL2374 flight status page for this flight to view local times or setup timezone preferences in your user account.

Time Position Orientation Groundspeed Altitude Reporting Facility
EDT Latitude Longitude Course Direction KTS MPH feet Rate Location/Type
Mon 02:05:23 PM 28.4317 -81.2978 355° North 165 190 500  Level FlightAware ADS-B
Mon 02:05:33 PM 28.4393 -81.2985 349° North 163 188 1,100 2,200 Climbing FlightAware ADS-B
Mon 02:05:53 PM 28.4557 -81.3035 342° North 187 215 1,600 1,592 Climbing FlightAware ADS-B
Mon 02:06:22 PM 28.4816 -81.3137 341° North 220 253 2,400 1,592 Climbing FlightAware ADS-B
Mon 02:06:42 PM 28.5008 -81.3209 342° North 244 281 2,900 1,882 Climbing FlightAware ADS-B
Mon 02:07:13 PM 28.5355 -81.3368 322° Northwest 267 307 4,000 2,400 Climbing FlightAware ADS-B
Mon 02:07:22 PM 28.5439 -81.3474 304° West 274 315 4,500 3,000 Climbing FlightAware ADS-B
Mon 02:07:33 PM 28.5491 -81.3592 288° West 274 315 5,000 2,710 Climbing FlightAware ADS-B
Mon 02:07:53 PM 28.5514 -81.3898 265° West 287 330 5,900 2,760 Climbing FlightAware ADS-B
Mon 02:08:23 PM 28.5459 -81.4351 261° West 295 339 7,300 3,000 Climbing FlightAware ADS-B
Mon 02:08:43 PM 28.5417 -81.4646 261° West 292 336 8,400 2,780 Climbing FlightAware ADS-B
Mon 02:09:04 PM 28.5373 -81.4980 262° West 298 343 9,200 2,262 Climbing FlightAware ADS-B
Mon 02:09:44 PM 28.5284 -81.5608 261° West 310 357 10,700 1,714 Climbing FlightAware ADS-B
Mon 02:10:14 PM 28.5219 -81.6116 262° West 340 391 11,200 1,114 Climbing FlightAware ADS-B
Mon 02:10:54 PM 28.5133 -81.6837 263° West 370 426 12,000 1,630 Climbing FlightAware ADS-B
Mon 02:11:35 PM 28.5040 -81.7643 263° West 379 436 13,400 2,025 Climbing FlightAware ADS-B
Mon 02:12:14 PM 28.4952 -81.8430 264° West 387 445 14,700 2,121 Climbing FlightAware ADS-B
Mon 02:13:14 PM 28.4822 -81.9647 263° West 390 449 16,900 2,089 Climbing FlightAware ADS-B
Mon 02:14:06 PM 28.4734 -82.0458 263° West 394 453 18,600 1,821 Climbing FlightAware ADS-B
Mon 02:15:06 PM 28.4574 -82.1954 263° West 401 461 20,300 1,659 Climbing FlightAware ADS-B
Mon 02:16:09 PM 28.4511 -82.3211 263° West 394 453 22,000 1,561 Climbing Jacksonville Center
Mon 02:17:09 PM 28.4392 -82.4464 264° West 405 466 23,500 1,450 Climbing Jacksonville Center
Mon 02:18:09 PM 28.4272 -82.5786 264° West 410 472 24,900 1,300 Climbing Jacksonville Center
Mon 02:19:09 PM 28.4147 -82.7108 264° West 415 478 26,100 1,150 Climbing Jacksonville Center
Mon 02:20:09 PM 28.4358 -82.8406 281° West 421 484 27,200 1,050 Climbing Jacksonville Center
Mon 02:21:09 PM 28.5317 -82.9303 321° Northwest 395 455 28,200 1,150 Climbing Jacksonville Center
Mon 02:22:09 PM 28.6528 -82.9683 345° North 401 461 29,500 900 Climbing Jacksonville Center
Mon 02:23:09 PM 28.7758 -83.0064 345° North 423 487 30,000 250 Climbing Jacksonville Center
Mon 02:24:09 PM 28.8992 -83.0492 343° North 442 509 30,000  Level Jacksonville Center
Mon 02:25:09 PM 29.0222 -83.0897 344° North 455 524 30,000  Level Jacksonville Center
Mon 02:26:09 PM 29.1472 -83.1350 342° North 461 531 30,000 450 Level Jacksonville Center
Mon 02:27:09 PM 29.2703 -83.1758 344° North 461 531 30,900 1,000 Climbing Jacksonville Center
Mon 02:28:09 PM 29.3914 -83.2192 343° North 461 531 32,000 550 Climbing Jacksonville Center
Mon 02:29:09 PM 29.5122 -83.2600 344° North 461 531 32,000  Level Jacksonville Center
Mon 02:30:09 PM 29.6333 -83.3036 343° North 456 525 32,000  Level Jacksonville Center
Mon 02:31:09 PM 29.7583 -83.3447 344° North 461 531 32,000  Level Jacksonville Center
Mon 02:32:09 PM 29.8794 -83.3861 343° North 461 531 32,000  Level Jacksonville Center
Mon 02:33:09 PM 30.0064 -83.4275 344° North 461 531 32,000  Level Jacksonville Center
Mon 02:34:09 PM 30.1317 -83.4714 343° North 466 536 32,000  Level Jacksonville Center
Mon 02:35:09 PM 30.2419 -83.5081 344° North 466 536 32,000  Level Jacksonville Center
Mon 02:36:09 PM 30.3672 -83.5522 343° North 466 536 32,000  Level Jacksonville Center
Mon 02:37:09 PM 30.4942 -83.5967 343° North 466 536 32,000  Level Jacksonville Center
Mon 02:38:09 PM 30.6317 -83.6433 344° North 461 531 32,000  Level Jacksonville Center
Mon 02:39:09 PM 30.7589 -83.6878 343° North 461 531 32,000  Level Jacksonville Center
Mon 02:40:09 PM 30.8817 -83.7325 343° North 461 531 32,000  Level Jacksonville Center
Mon 02:41:09 PM 31.0089 -83.7772 343° North 461 531 32,000  Level Jacksonville Center
Mon 02:42:09 PM 31.1317 -83.8172 344° North 461 531 32,000  Level Jacksonville Center
Mon 02:43:09 PM 31.2567 -83.8647 342° North 461 531 32,000  Level Jacksonville Center
Mon 02:44:09 PM 31.3794 -83.9097 343° North 461 531 32,000  Level Jacksonville Center
Mon 02:45:17 PM 31.5108 -83.9536 344° North 445 512 32,000  Level Atlanta Center
Mon 02:46:17 PM 31.6381 -83.9875 347° North 451 519 32,000  Level Atlanta Center
Mon 02:47:17 PM 31.7653 -84.0144 350° North 461 531 32,000  Level Atlanta Center
Mon 02:48:17 PM 31.8906 -84.0414 350° North 461 531 32,000  Level Atlanta Center
Mon 02:49:17 PM 32.0200 -84.0683 350° North 461 531 32,000  Level Atlanta Center
Mon 02:50:17 PM 32.1453 -84.0978 349° North 461 531 32,000  Level Atlanta Center
Mon 02:51:17 PM 32.2725 -84.1272 349° North 466 536 32,000  Level Atlanta Center
Mon 02:52:17 PM 32.3978 -84.1544 350° North 466 536 32,000  Level Atlanta Center
Mon 02:53:17 PM 32.5231 -84.1842 349° North 466 536 32,000  Level Atlanta Center
Mon 02:54:17 PM 32.6525 -84.2117 350° North 466 536 32,000  Level Atlanta Center
Mon 02:55:17 PM 32.7775 -84.2414 349° North 466 536 32,000  Level Atlanta Center
Mon 02:56:17 PM 32.9028 -84.2714 349° North 466 536 32,000  Level Atlanta Center
Mon 02:57:17 PM 33.0322 -84.3014 349° North 466 536 32,000  Level Atlanta Center
Mon 02:58:17 PM 33.1697 -84.3317 350° North 466 536 32,000  Level Atlanta Center
Mon 02:59:17 PM 33.2992 -84.3619 349° North 471 542 32,000  Level Atlanta Center
Mon 03:00:17 PM 33.4264 -84.3897 350° North 464 534 32,000  Level Atlanta Center
Mon 03:01:17 PM 33.5517 -84.4203 349° North 464 534 32,000  Level Atlanta Center
Mon 03:02:17 PM 33.6831 -84.4508 349° North 469 540 32,000  Level Atlanta Center
Mon 03:03:17 PM 33.8081 -84.4814 349° North 464 534 32,000  Level Atlanta Center
Mon 03:04:17 PM 33.9247 -84.5119 348° North 466 536 32,000  Level Atlanta Center
Mon 03:05:17 PM 34.0561 -84.5403 350° North 466 536 32,000 348 Level Atlanta Center
Mon 03:10:02 PM 34.6545 -84.6721 348° North 463 533 34,000 326 Climbing FlightAware ADS-B (KMDQ)
Mon 03:11:25 PM 34.8320 -84.7162 348° North 464 534 34,000  Level FlightAware ADS-B (KMDQ)
Mon 03:13:25 PM 35.0896 -84.7806 348° North 468 539 34,000  Level FlightAware ADS-B (KMDQ)
Mon 03:14:25 PM 35.2082 -84.8103 348° North 469 540 34,000  Level FlightAware ADS-B (KMDQ)
Mon 03:15:05 PM 35.2993 -84.8333 348° North 470 541 34,000  Level FlightAware ADS-B (KMDQ)
Mon 03:15:45 PM 35.3846 -84.8549 348° North 471 542 34,000  Level FlightAware ADS-B (KMDQ)
Mon 03:16:25 PM 35.4642 -84.8750 348° North 472 543 34,000  Level FlightAware ADS-B (KMDQ)
Mon 03:17:05 PM 35.5523 -84.8973 348° North 473 544 34,000  Level FlightAware ADS-B (KMDQ)
Mon 03:17:45 PM 35.6402 -84.9198 348° North 474 545 34,000  Level FlightAware ADS-B (KMDQ)
Mon 03:18:25 PM 35.7259 -84.9415 348° North 476 548 34,000  Level FlightAware ADS-B (KMDQ)
Mon 03:19:03 PM 35.7925 -84.9584 348° North 476 548 34,000  Level FlightAware ADS-B (KMDQ)
Mon 03:19:45 PM 35.9030 -84.9867 348° North 476 548 34,000  Level FlightAware ADS-B (KMDQ)
Mon 03:20:25 PM 35.9868 -85.0082 348° North 478 550 34,000  Level FlightAware ADS-B (KMDQ)
Mon 03:21:05 PM 36.0766 -85.0312 348° North 478 550 34,000  Level FlightAware ADS-B (KMDQ)
Mon 03:21:45 PM 36.1532 -85.0509 348° North 479 551 34,000  Level FlightAware ADS-B (KMDQ)
Mon 03:22:25 PM 36.2475 -85.0753 348° North 479 551 34,000  Level FlightAware ADS-B (KMDQ)
Mon 03:23:05 PM 36.3380 -85.0987 348° North 479 551 34,000  Level FlightAware ADS-B (KMDQ)
Mon 03:23:44 PM 36.4142 -85.1186 348° North 479 551 34,000  Level FlightAware ADS-B (KMDQ)
Mon 03:24:23 PM 36.4833 -85.1366 348° North 480 552 34,000  Level FlightAware ADS-B (KMDQ)
Mon 03:25:47 PM 36.6899 -85.1905 348° North 481 554 34,000  Level FlightAware ADS-B (EPWR / WRO)
Mon 03:26:23 PM 36.7719 -85.2121 348° North 480 552 34,000  Level FlightAware ADS-B (EPWR / WRO)
Mon 03:27:03 PM 36.8330 -85.2281 348° North 480 552 34,000  Level FlightAware ADS-B (EPWR / WRO)
Mon 03:27:36 PM 36.9091 -85.2482 348° North 482 555 34,000 190 Level FlightAware ADS-B (EPWR / WRO)
Mon 03:28:06 PM 36.9765 -85.2660 348° North 484 557 34,200 774 Climbing FlightAware ADS-B (EPWR / WRO)
Mon 03:28:38 PM 37.0653 -85.2896 348° North 476 548 34,800 903 Climbing FlightAware ADS-B (EPWR / WRO)
Mon 03:29:39 PM 37.1957 -85.3242 348° North 472 543 35,600 725 Climbing FlightAware ADS-B (EPWR / WRO)
Mon 03:30:09 PM 37.2595 -85.3413 348° North 472 543 35,900 400 Climbing FlightAware ADS-B (EPWR / WRO)
Mon 03:30:39 PM 37.3252 -85.3589 348° North 471 542 36,000 82 Climbing FlightAware ADS-B (EPWR / WRO)
Mon 03:31:22 PM 37.4166 -85.3833 348° North 468 539 36,000  Level FlightAware ADS-B (EPWR / WRO)
Mon 03:32:09 PM 37.5052 -85.4070 348° North 469 540 36,000  Level FlightAware ADS-B (EPWR / WRO)
Mon 03:32:54 PM 37.6124 -85.4360 348° North 473 544 36,000  Level FlightAware ADS-B (EPWR / WRO)
Mon 03:33:34 PM 37.6974 -85.4588 348° North 475 547 36,000  Level FlightAware ADS-B (EPWR / WRO)
Mon 03:34:09 PM 37.7741 -85.4796 348° North 476 548 36,000  Level FlightAware ADS-B (EPWR / WRO)
Mon 03:34:39 PM 37.8345 -85.4958 348° North 475 547 36,000  Level FlightAware ADS-B (EPWR / WRO)
Mon 03:35:09 PM 37.8996 -85.5135 348° North 474 545 36,000  Level FlightAware ADS-B (EPWR / WRO)
Mon 03:35:39 PM 37.9676 -85.5321 348° North 474 545 36,000  Level FlightAware ADS-B (EPWR / WRO)
Mon 03:36:10 PM 38.0262 -85.5481 348° North 473 544 36,000  Level FlightAware ADS-B (EPWR / WRO)
Mon 03:36:50 PM 38.1172 -85.5843 336° Northwest 469 540 36,000  Level FlightAware ADS-B (EPWR / WRO)
Mon 03:37:25 PM 38.1841 -85.6233 335° Northwest 468 539 36,000  Level FlightAware ADS-B (EPWR / WRO)
Mon 03:38:07 PM 38.2562 -85.6658 335° Northwest 468 539 36,000  Level FlightAware ADS-B
Mon 03:38:43 PM 38.3389 -85.7150 335° Northwest 467 537 36,000  Level FlightAware ADS-B
Mon 03:39:24 PM 38.3572 -85.7260 335° Northwest 468 539 36,000  Level FlightAware ADS-B
Mon 03:40:01 PM 38.4720 -85.7942 335° Northwest 468 539 36,000  Level FlightAware ADS-B (KCVG)
Mon 03:41:03 PM 38.6137 -85.8788 335° Northwest 471 542 36,000  Level FlightAware ADS-B (KCVG)
Mon 03:42:37 PM 38.7990 -85.9898 335° Northwest 471 542 36,000  Level FlightAware ADS-B
Mon 03:44:24 PM 38.6137 -85.8788 335° Northwest 469 540 36,000  Level FlightAware ADS-B
Mon 03:48:04 PM 39.4388 -86.3784 335° Northwest 467 537 36,000  Level FlightAware ADS-B
Mon 03:48:42 PM 39.5118 -86.4232 335° Northwest 467 537 36,000  Level FlightAware ADS-B
Mon 03:49:46 PM 39.5766 -86.4630 335° Northwest 466 536 36,000  Level FlightAware ADS-B
Mon 03:51:39 PM 39.7307 -86.5580 335° Northwest 467 537 36,000  Level FlightAware ADS-B
Mon 03:52:31 PM 39.9149 -86.6720 335° Northwest 469 540 36,000  Level FlightAware ADS-B
Mon 03:53:08 PM 40.0340 -86.7460 335° Northwest 471 542 36,000  Level FlightAware ADS-B
Mon 03:53:47 PM 40.0178 -86.7359 335° Northwest 471 542 36,000  Level FlightAware ADS-B
Mon 03:54:45 PM 40.2383 -86.8697 335° Northwest 470 541 36,000  Level Chicago Center
Mon 04:00:20 PM 40.9213 -87.1346 North 488 562 36,000  Level FlightAware ADS-B (EGPH / EDI)
Mon 04:01:28 PM 41.0761 -87.1329 North 492 566 36,000  Level FlightAware ADS-B (EGPH / EDI)
Mon 04:02:04 PM 41.1582 -87.1312 North 493 567 36,000  Level FlightAware ADS-B (EGPH / EDI)
Mon 04:02:50 PM 41.2623 -87.1347 356° North 489 563 36,000  Level FlightAware ADS-B (EGPH / EDI)
Mon 04:04:24 PM 41.4551 -87.2328 336° Northwest 476 548 36,000  Level FlightAware ADS-B (EGPH / EDI)
Mon 04:07:42 PM 41.8389 -87.4697 335° Northwest 477 549 36,000  Level FlightAware ADS-B
Mon 04:08:21 PM 41.9243 -87.5226 335° Northwest 477 549 36,000  Level FlightAware ADS-B
Mon 04:09:02 PM 42.0094 -87.5753 335° Northwest 476 548 36,000  Level FlightAware ADS-B
Mon 04:09:41 PM 42.0796 -87.6192 335° Northwest 476 548 36,000  Level FlightAware ADS-B
Mon 04:10:47 PM 42.1830 -87.6838 335° Northwest 473 544 36,000  Level FlightAware ADS-B (KMSN)
Mon 04:12:52 PM 42.4462 -87.8496 335° Northwest 441 507 36,000  Level FlightAware ADS-B (KMSN)
Mon 04:16:30 PM 42.8635 -88.1155 335° Northwest 442 509 36,000  Level FlightAware ADS-B (KMSN)
Mon 04:17:05 PM 42.9222 -88.1533 335° Northwest 442 509 36,000  Level FlightAware ADS-B (KMSN)
Mon 04:17:44 PM 42.9988 -88.2029 335° Northwest 442 509 36,000  Level FlightAware ADS-B (KMSN)
Mon 04:18:24 PM 43.0739 -88.2570 324° Northwest 436 502 36,000  Level FlightAware ADS-B (KMSN)
Mon 04:18:55 PM 43.1013 -88.2891 312° West 430 495 36,000  Level FlightAware ADS-B (KMSN)
Mon 04:19:30 PM 43.1313 -88.3351 308° West 429 494 36,000  Level FlightAware ADS-B (KMSN)
Mon 04:20:03 PM 43.1895 -88.4350 308° West 429 494 36,000  Level FlightAware ADS-B (KMSN)
Mon 04:21:23 PM 43.2064 -88.4645 307° West 424 488 36,000  Level FlightAware ADS-B (KMSN)
Mon 04:22:59 PM 43.4204 -88.8328 309° West 418 481 36,000  Level FlightAware ADS-B (KMSN)
Mon 04:23:42 PM 43.4709 -88.9197 308° West 415 478 36,000  Level FlightAware ADS-B (KMSN)
Mon 04:24:46 PM 43.5273 -89.0633 292° West 399 459 36,000  Level FlightAware ADS-B (KMSN)
Mon 04:25:24 PM 43.5541 -89.1526 292° West 399 459 36,000  Level FlightAware ADS-B (KMSN)
Mon 04:25:56 PM 43.5765 -89.2278 292° West 401 461 36,000  Level FlightAware ADS-B (KMSN)
Mon 04:27:03 PM 43.5963 -89.2910 315° West 412 474 36,000  Level FlightAware ADS-B (KMSN)
Mon 04:27:52 PM 43.7339 -89.4858 315° West 411 473 36,000  Level Chicago Center
Mon 04:28:54 PM 43.8117 -89.5947 315° West 406 467 36,000 -290 Level Chicago Center
Mon 04:29:56 PM 43.8900 -89.7019 315° West 398 458 35,400 -1,085 Descending Chicago Center
Mon 04:30:28 PM 43.9375 -89.7694 314° West 400 460 34,300 -894 Descending Minneapolis Center
Mon 04:31:30 PM 44.0186 -89.8831 315° West 411 473 34,000 -145 Descending Minneapolis Center
Mon 04:32:32 PM 44.0764 -90.0203 300° West 411 473 34,000  Level Minneapolis Center
Mon 04:33:34 PM 44.1306 -90.1642 298° West 415 478 34,000  Level Minneapolis Center
Mon 04:34:36 PM 44.1825 -90.3103 296° West 420 483 34,000 -97 Level Minneapolis Center
Mon 04:35:38 PM 44.2339 -90.4533 297° West 418 481 33,800 -919 Descending Minneapolis Center
Mon 04:36:40 PM 44.2925 -90.6144 297° West 417 480 32,100 -1,645 Descending Minneapolis Center
Mon 04:37:42 PM 44.3475 -90.7708 296° West 417 480 30,400 -1,694 Descending Minneapolis Center
Mon 04:38:44 PM 44.4039 -90.9289 297° West 417 480 28,600 -2,129 Descending Minneapolis Center
Mon 04:39:46 PM 44.4550 -91.0728 296° West 417 480 26,000 -2,274 Descending Minneapolis Center
Mon 04:40:48 PM 44.5025 -91.2114 296° West 405 466 23,900 -2,032 Descending Minneapolis Center
Mon 04:41:50 PM 44.5500 -91.3464 296° West 394 453 21,800 -1,984 Descending Minneapolis Center
Mon 04:42:52 PM 44.5961 -91.4811 296° West 392 451 19,800 -2,032 Descending Minneapolis Center
Mon 04:43:54 PM 44.6406 -91.6117 296° West 382 440 17,600 -2,081 Descending Minneapolis Center
Mon 04:44:56 PM 44.6839 -91.7378 296° West 372 428 15,500 -2,129 Descending Minneapolis Center
Mon 04:45:58 PM 44.7364 -91.8853 297° West 358 412 13,200 -1,790 Descending Minneapolis Center
Mon 04:47:00 PM 44.7781 -92.0061 296° West 348 400 11,800 -1,122 Descending Minneapolis Center
Mon 04:48:01 PM 44.8178 -92.1261 295° West 343 395 10,900 -878 Descending Minneapolis Center
Mon 04:49:03 PM 44.8569 -92.2439 295° West 337 388 10,000 -484 Descending Minneapolis Center
Mon 04:50:05 PM 44.8633 -92.3672 274° West 339 390 9,900 -97 Descending Minneapolis Center
Mon 04:51:07 PM 44.8156 -92.4681 236° Southwest 311 358 9,800 -581 Descending Minneapolis Center
Mon 04:52:09 PM 44.7650 -92.5739 236° Southwest 279 321 8,700 -1,258 Descending Minneapolis Center
Mon 04:53:11 PM 44.7228 -92.6622 236° Southwest 276 318 7,200 -1,645 Descending Minneapolis Center
Mon 04:54:13 PM 44.6969 -92.7522 248° West 254 292 5,300 -1,548 Descending Minneapolis Center
Mon 04:55:15 PM 44.7067 -92.8475 278° West 247 284 4,000 -629 Descending Minneapolis Center
Mon 04:56:17 PM 44.7358 -92.9208 299° West 221 254 4,000  Level Minneapolis Center
Mon 04:57:19 PM 44.7686 -92.9811 307° West 196 226 4,000 -290 Level Minneapolis Center
Mon 04:58:21 PM 44.8042 -93.0467 307° West 180 207 3,400 -672 Descending Minneapolis Center
Mon 04:59:24 PM 44.8292 -93.0992 304° West 168 193 2,600 -768 Descending Minneapolis Center
Mon 05:00:26 PM 44.8500 -93.1469 302° West 147 169 1,800 -774 Descending Minneapolis Center

Login

Don't have an account? Register now (free) for customized features, flight alerts, and more!